sensor_id;sensor_type;location;lat;lon;timestamp;P1;durP1;ratioP1;P2;durP2;ratioP2
4021;SDS011;2025;48.260;16.432;2022-10-31T00:00:41;37.00;;;12.68;;
4021;SDS011;2025;48.260;16.432;2022-10-31T00:03:08;42.20;;;13.38;;
4021;SDS011;2025;48.260;16.432;2022-10-31T00:05:35;43.83;;;13.43;;
4021;SDS011;2025;48.260;16.432;2022-10-31T00:08:02;38.10;;;13.50;;
4021;SDS011;2025;48.260;16.432;2022-10-31T00:10:31;42.92;;;13.25;;
4021;SDS011;2025;48.260;16.432;2022-10-31T00:12:58;37.42;;;13.05;;
4021;SDS011;2025;48.260;16.432;2022-10-31T00:15:25;36.55;;;13.80;;
4021;SDS011;2025;48.260;16.432;2022-10-31T00:17:52;35.65;;;12.65;;
4021;SDS011;2025;48.260;16.432;2022-10-31T00:20:19;30.27;;;11.90;;
4021;SDS011;2025;48.260;16.432;2022-10-31T00:22:46;29.27;;;11.80;;
4021;SDS011;2025;48.260;16.432;2022-10-31T00:25:13;35.33;;;12.75;;
4021;SDS011;2025;48.260;16.432;2022-10-31T00:27:41;34.80;;;12.90;;
4021;SDS011;2025;48.260;16.432;2022-10-31T00:30:09;32.35;;;12.52;;
4021;SDS011;2025;48.260;16.432;2022-10-31T00:32:36;36.03;;;13.00;;
4021;SDS011;2025;48.260;16.432;2022-10-31T00:35:03;38.38;;;13.88;;
4021;SDS011;2025;48.260;16.432;2022-10-31T00:37:31;33.40;;;12.63;;
4021;SDS011;2025;48.260;16.432;2022-10-31T00:39:58;33.58;;;12.00;;
4021;SDS011;2025;48.260;16.432;2022-10-31T00:42:25;29.90;;;11.65;;
4021;SDS011;2025;48.260;16.432;2022-10-31T00:44:53;30.90;;;11.68;;
4021;SDS011;2025;48.260;16.432;2022-10-31T00:47:20;28.58;;;11.15;;
4021;SDS011;2025;48.260;16.432;2022-10-31T00:49:47;31.52;;;11.48;;
4021;SDS011;2025;48.260;16.432;2022-10-31T00:52:14;32.90;;;11.90;;
4021;SDS011;2025;48.260;16.432;2022-10-31T00:54:42;30.55;;;11.15;;
4021;SDS011;2025;48.260;16.432;2022-10-31T00:57:09;27.38;;;11.15;;
4021;SDS011;2025;48.260;16.432;2022-10-31T00:59:35;29.67;;;11.60;;
4021;SDS011;2025;48.260;16.432;2022-10-31T01:02:04;28.23;;;11.77;;
4021;SDS011;2025;48.260;16.432;2022-10-31T01:04:31;27.05;;;11.15;;
4021;SDS011;2025;48.260;16.432;2022-10-31T01:06:58;30.45;;;11.77;;
4021;SDS011;2025;48.260;16.432;2022-10-31T01:09:25;30.70;;;12.40;;
4021;SDS011;2025;48.260;16.432;2022-10-31T01:11:52;29.15;;;12.45;;
4021;SDS011;2025;48.260;16.432;2022-10-31T01:14:19;28.65;;;10.88;;
4021;SDS011;2025;48.260;16.432;2022-10-31T01:16:46;24.73;;;10.80;;
4021;SDS011;2025;48.260;16.432;2022-10-31T01:19:14;30.55;;;11.55;;
4021;SDS011;2025;48.260;16.432;2022-10-31T01:21:42;34.22;;;11.27;;
4021;SDS011;2025;48.260;16.432;2022-10-31T01:24:09;32.63;;;11.40;;
4021;SDS011;2025;48.260;16.432;2022-10-31T01:26:36;34.58;;;11.73;;
4021;SDS011;2025;48.260;16.432;2022-10-31T01:29:03;36.20;;;10.93;;
4021;SDS011;2025;48.260;16.432;2022-10-31T01:31:33;35.47;;;11.07;;
4021;SDS011;2025;48.260;16.432;2022-10-31T01:34:02;31.45;;;11.65;;
4021;SDS011;2025;48.260;16.432;2022-10-31T01:36:32;32.60;;;12.05;;
4021;SDS011;2025;48.260;16.432;2022-10-31T01:39:01;33.42;;;11.68;;
4021;SDS011;2025;48.260;16.432;2022-10-31T01:41:31;33.42;;;11.98;;
4021;SDS011;2025;48.260;16.432;2022-10-31T01:44:01;35.55;;;11.90;;
4021;SDS011;2025;48.260;16.432;2022-10-31T01:46:30;36.72;;;12.07;;
4021;SDS011;2025;48.260;16.432;2022-10-31T01:49:02;31.38;;;11.20;;
4021;SDS011;2025;48.260;16.432;2022-10-31T01:51:37;33.60;;;12.32;;
4021;SDS011;2025;48.260;16.432;2022-10-31T01:54:09;33.75;;;10.75;;
4021;SDS011;2025;48.260;16.432;2022-10-31T01:56:41;35.28;;;12.73;;
4021;SDS011;2025;48.260;16.432;2022-10-31T01:59:13;30.40;;;11.07;;
4021;SDS011;2025;48.260;16.432;2022-10-31T02:01:45;33.95;;;11.95;;
4021;SDS011;2025;48.260;16.432;2022-10-31T02:04:14;34.65;;;11.95;;
4021;SDS011;2025;48.260;16.432;2022-10-31T02:06:44;32.05;;;12.60;;
4021;SDS011;2025;48.260;16.432;2022-10-31T02:09:17;34.05;;;11.85;;
4021;SDS011;2025;48.260;16.432;2022-10-31T02:11:48;29.33;;;10.43;;
4021;SDS011;2025;48.260;16.432;2022-10-31T02:14:17;33.25;;;10.15;;
4021;SDS011;2025;48.260;16.432;2022-10-31T02:16:45;29.35;;;10.90;;
4021;SDS011;2025;48.260;16.432;2022-10-31T02:19:12;27.98;;;10.20;;
4021;SDS011;2025;48.260;16.432;2022-10-31T02:21:48;26.42;;;10.40;;
4021;SDS011;2025;48.260;16.432;2022-10-31T02:24:32;24.63;;;9.57;;
4021;SDS011;2025;48.260;16.432;2022-10-31T02:27:21;25.58;;;8.98;;
4021;SDS011;2025;48.260;16.432;2022-10-31T02:30:05;24.42;;;8.93;;
4021;SDS011;2025;48.260;16.432;2022-10-31T02:32:40;22.23;;;8.85;;
4021;SDS011;2025;48.260;16.432;2022-10-31T02:35:30;24.10;;;8.48;;
4021;SDS011;2025;48.260;16.432;2022-10-31T02:38:10;17.35;;;6.63;;
4021;SDS011;2025;48.260;16.432;2022-10-31T02:40:44;16.80;;;8.00;;
4021;SDS011;2025;48.260;16.432;2022-10-31T02:43:18;21.67;;;7.95;;
4021;SDS011;2025;48.260;16.432;2022-10-31T02:45:50;18.48;;;7.72;;
4021;SDS011;2025;48.260;16.432;2022-10-31T02:48:26;18.98;;;7.60;;
4021;SDS011;2025;48.260;16.432;2022-10-31T02:50:56;17.75;;;7.15;;
4021;SDS011;2025;48.260;16.432;2022-10-31T02:53:26;17.25;;;6.30;;
4021;SDS011;2025;48.260;16.432;2022-10-31T02:55:58;15.88;;;6.70;;
4021;SDS011;2025;48.260;16.432;2022-10-31T02:58:28;15.50;;;6.88;;
4021;SDS011;2025;48.260;16.432;2022-10-31T03:01:05;18.35;;;7.50;;
4021;SDS011;2025;48.260;16.432;2022-10-31T03:03:48;17.33;;;6.47;;
4021;SDS011;2025;48.260;16.432;2022-10-31T03:06:25;14.75;;;6.03;;
4021;SDS011;2025;48.260;16.432;2022-10-31T03:08:59;16.38;;;6.43;;
4021;SDS011;2025;48.260;16.432;2022-10-31T03:11:31;17.20;;;7.20;;
4021;SDS011;2025;48.260;16.432;2022-10-31T03:14:06;14.40;;;5.88;;
4021;SDS011;2025;48.260;16.432;2022-10-31T03:16:41;14.80;;;5.88;;
4021;SDS011;2025;48.260;16.432;2022-10-31T03:19:15;12.82;;;5.80;;
4021;SDS011;2025;48.260;16.432;2022-10-31T03:21:46;15.18;;;6.22;;
4021;SDS011;2025;48.260;16.432;2022-10-31T03:24:16;13.20;;;6.10;;
4021;SDS011;2025;48.260;16.432;2022-10-31T03:26:51;14.20;;;5.53;;
4021;SDS011;2025;48.260;16.432;2022-10-31T03:29:22;14.73;;;5.70;;
4021;SDS011;2025;48.260;16.432;2022-10-31T03:31:55;16.17;;;6.70;;
4021;SDS011;2025;48.260;16.432;2022-10-31T03:34:26;12.95;;;5.53;;
4021;SDS011;2025;48.260;16.432;2022-10-31T03:36:56;16.92;;;6.82;;
4021;SDS011;2025;48.260;16.432;2022-10-31T03:39:27;14.52;;;5.82;;
4021;SDS011;2025;48.260;16.432;2022-10-31T03:41:56;13.63;;;5.78;;
4021;SDS011;2025;48.260;16.432;2022-10-31T03:44:26;13.10;;;5.45;;
4021;SDS011;2025;48.260;16.432;2022-10-31T03:46:55;12.43;;;5.55;;
4021;SDS011;2025;48.260;16.432;2022-10-31T03:49:23;12.95;;;5.25;;
4021;SDS011;2025;48.260;16.432;2022-10-31T03:51:54;13.15;;;4.75;;
4021;SDS011;2025;48.260;16.432;2022-10-31T03:54:26;12.45;;;4.85;;
4021;SDS011;2025;48.260;16.432;2022-10-31T03:57:01;14.48;;;4.78;;
4021;SDS011;2025;48.260;16.432;2022-10-31T03:59:34;12.07;;;5.10;;
4021;SDS011;2025;48.260;16.432;2022-10-31T04:02:05;12.40;;;6.70;;
4021;SDS011;2025;48.260;16.432;2022-10-31T04:04:37;11.27;;;4.88;;
4021;SDS011;2025;48.260;16.432;2022-10-31T04:07:07;15.40;;;5.60;;
4021;SDS011;2025;48.260;16.432;2022-10-31T04:09:37;14.20;;;5.35;;
4021;SDS011;2025;48.260;16.432;2022-10-31T04:12:08;12.77;;;4.72;;
4021;SDS011;2025;48.260;16.432;2022-10-31T04:14:40;13.52;;;6.05;;
4021;SDS011;2025;48.260;16.432;2022-10-31T04:17:10;13.02;;;5.15;;
4021;SDS011;2025;48.260;16.432;2022-10-31T04:19:40;13.50;;;5.22;;
4021;SDS011;2025;48.260;16.432;2022-10-31T04:22:08;11.43;;;4.90;;
4021;SDS011;2025;48.260;16.432;2022-10-31T04:24:36;11.52;;;4.63;;
4021;SDS011;2025;48.260;16.432;2022-10-31T04:27:06;13.20;;;4.93;;
4021;SDS011;2025;48.260;16.432;2022-10-31T04:29:33;12.35;;;4.53;;
4021;SDS011;2025;48.260;16.432;2022-10-31T04:32:00;12.90;;;4.85;;
4021;SDS011;2025;48.260;16.432;2022-10-31T04:34:27;13.73;;;5.70;;
4021;SDS011;2025;48.260;16.432;2022-10-31T04:36:54;14.02;;;5.13;;
4021;SDS011;2025;48.260;16.432;2022-10-31T04:39:23;13.73;;;4.53;;
4021;SDS011;2025;48.260;16.432;2022-10-31T04:41:50;12.82;;;4.72;;
4021;SDS011;2025;48.260;16.432;2022-10-31T04:44:17;13.25;;;5.32;;
4021;SDS011;2025;48.260;16.432;2022-10-31T04:46:44;13.77;;;4.82;;
4021;SDS011;2025;48.260;16.432;2022-10-31T04:49:11;15.88;;;5.88;;
4021;SDS011;2025;48.260;16.432;2022-10-31T04:51:38;17.02;;;5.70;;
4021;SDS011;2025;48.260;16.432;2022-10-31T04:54:05;15.73;;;6.40;;
4021;SDS011;2025;48.260;16.432;2022-10-31T04:56:33;16.30;;;6.80;;
4021;SDS011;2025;48.260;16.432;2022-10-31T04:59:00;15.95;;;5.65;;
4021;SDS011;2025;48.260;16.432;2022-10-31T05:01:27;13.90;;;7.45;;
4021;SDS011;2025;48.260;16.432;2022-10-31T05:03:55;14.52;;;5.38;;
4021;SDS011;2025;48.260;16.432;2022-10-31T05:06:22;12.40;;;5.68;;
4021;SDS011;2025;48.260;16.432;2022-10-31T05:08:49;12.20;;;4.70;;
4021;SDS011;2025;48.260;16.432;2022-10-31T05:11:16;9.30;;;3.75;;
4021;SDS011;2025;48.260;16.432;2022-10-31T05:13:44;11.10;;;4.07;;
4021;SDS011;2025;48.260;16.432;2022-10-31T05:16:11;10.32;;;4.28;;
4021;SDS011;2025;48.260;16.432;2022-10-31T05:18:38;8.85;;;2.83;;
4021;SDS011;2025;48.260;16.432;2022-10-31T05:21:05;11.43;;;3.00;;
4021;SDS011;2025;48.260;16.432;2022-10-31T05:23:32;8.65;;;2.67;;
4021;SDS011;2025;48.260;16.432;2022-10-31T05:25:59;9.43;;;3.38;;
4021;SDS011;2025;48.260;16.432;2022-10-31T05:28:26;8.70;;;3.30;;
4021;SDS011;2025;48.260;16.432;2022-10-31T05:30:55;7.03;;;2.63;;
4021;SDS011;2025;48.260;16.432;2022-10-31T05:33:22;7.38;;;2.40;;
4021;SDS011;2025;48.260;16.432;2022-10-31T05:35:49;7.20;;;2.83;;
4021;SDS011;2025;48.260;16.432;2022-10-31T05:38:16;7.78;;;2.38;;
4021;SDS011;2025;48.260;16.432;2022-10-31T05:40:43;6.88;;;2.50;;
4021;SDS011;2025;48.260;16.432;2022-10-31T05:43:10;9.20;;;2.92;;
4021;SDS011;2025;48.260;16.432;2022-10-31T05:45:37;10.50;;;2.58;;
4021;SDS011;2025;48.260;16.432;2022-10-31T05:48:05;7.60;;;2.65;;
4021;SDS011;2025;48.260;16.432;2022-10-31T05:50:32;9.77;;;3.13;;
4021;SDS011;2025;48.260;16.432;2022-10-31T05:53:00;8.05;;;2.70;;
4021;SDS011;2025;48.260;16.432;2022-10-31T05:55:28;9.05;;;2.60;;
4021;SDS011;2025;48.260;16.432;2022-10-31T05:57:55;8.45;;;3.45;;
4021;SDS011;2025;48.260;16.432;2022-10-31T06:00:23;9.93;;;4.25;;
4021;SDS011;2025;48.260;16.432;2022-10-31T06:02:57;8.27;;;4.18;;
4021;SDS011;2025;48.260;16.432;2022-10-31T06:05:26;8.80;;;2.85;;
4021;SDS011;2025;48.260;16.432;2022-10-31T06:07:54;7.13;;;2.15;;
4021;SDS011;2025;48.260;16.432;2022-10-31T06:10:21;9.65;;;3.25;;
4021;SDS011;2025;48.260;16.432;2022-10-31T06:12:48;9.15;;;3.00;;
4021;SDS011;2025;48.260;16.432;2022-10-31T06:15:16;7.45;;;2.40;;
4021;SDS011;2025;48.260;16.432;2022-10-31T06:17:43;8.68;;;4.63;;
4021;SDS011;2025;48.260;16.432;2022-10-31T06:20:11;8.02;;;2.65;;
4021;SDS011;2025;48.260;16.432;2022-10-31T06:22:39;10.98;;;2.97;;
4021;SDS011;2025;48.260;16.432;2022-10-31T06:25:06;8.88;;;2.70;;
4021;SDS011;2025;48.260;16.432;2022-10-31T06:27:34;9.18;;;2.33;;
4021;SDS011;2025;48.260;16.432;2022-10-31T06:30:02;6.90;;;2.70;;
4021;SDS011;2025;48.260;16.432;2022-10-31T06:32:30;6.68;;;2.03;;
4021;SDS011;2025;48.260;16.432;2022-10-31T06:34:57;9.23;;;2.88;;
4021;SDS011;2025;48.260;16.432;2022-10-31T06:37:24;8.35;;;2.83;;
4021;SDS011;2025;48.260;16.432;2022-10-31T06:39:52;8.52;;;2.55;;
4021;SDS011;2025;48.260;16.432;2022-10-31T06:42:19;7.85;;;2.55;;
4021;SDS011;2025;48.260;16.432;2022-10-31T06:44:47;8.02;;;2.38;;
4021;SDS011;2025;48.260;16.432;2022-10-31T06:47:14;8.30;;;2.60;;
4021;SDS011;2025;48.260;16.432;2022-10-31T06:49:40;9.05;;;2.63;;
4021;SDS011;2025;48.260;16.432;2022-10-31T06:52:07;7.68;;;2.35;;
4021;SDS011;2025;48.260;16.432;2022-10-31T06:54:35;6.97;;;2.90;;
4021;SDS011;2025;48.260;16.432;2022-10-31T06:57:03;6.65;;;1.83;;
4021;SDS011;2025;48.260;16.432;2022-10-31T06:59:30;9.93;;;2.80;;
4021;SDS011;2025;48.260;16.432;2022-10-31T07:01:57;8.18;;;2.88;;
4021;SDS011;2025;48.260;16.432;2022-10-31T07:04:24;9.52;;;2.92;;
4021;SDS011;2025;48.260;16.432;2022-10-31T07:06:51;9.55;;;3.03;;
4021;SDS011;2025;48.260;16.432;2022-10-31T07:09:18;8.88;;;3.15;;
4021;SDS011;2025;48.260;16.432;2022-10-31T07:11:45;7.53;;;2.60;;
4021;SDS011;2025;48.260;16.432;2022-10-31T07:14:14;11.75;;;3.38;;
4021;SDS011;2025;48.260;16.432;2022-10-31T07:16:41;9.57;;;3.30;;
4021;SDS011;2025;48.260;16.432;2022-10-31T07:19:08;9.80;;;3.15;;
4021;SDS011;2025;48.260;16.432;2022-10-31T07:21:35;8.68;;;4.15;;
4021;SDS011;2025;48.260;16.432;2022-10-31T07:24:02;7.18;;;2.70;;
4021;SDS011;2025;48.260;16.432;2022-10-31T07:26:30;10.02;;;5.35;;
4021;SDS011;2025;48.260;16.432;2022-10-31T07:28:57;10.27;;;3.30;;
4021;SDS011;2025;48.260;16.432;2022-10-31T07:31:25;11.52;;;3.88;;
4021;SDS011;2025;48.260;16.432;2022-10-31T07:33:52;10.68;;;4.00;;
4021;SDS011;2025;48.260;16.432;2022-10-31T07:36:19;10.07;;;3.05;;
4021;SDS011;2025;48.260;16.432;2022-10-31T07:38:46;10.40;;;2.85;;
4021;SDS011;2025;48.260;16.432;2022-10-31T07:41:13;11.32;;;3.65;;
4021;SDS011;2025;48.260;16.432;2022-10-31T07:43:40;12.32;;;4.25;;
4021;SDS011;2025;48.260;16.432;2022-10-31T07:46:07;12.95;;;4.28;;
4021;SDS011;2025;48.260;16.432;2022-10-31T07:48:37;14.70;;;5.22;;
4021;SDS011;2025;48.260;16.432;2022-10-31T07:51:04;13.75;;;4.55;;
4021;SDS011;2025;48.260;16.432;2022-10-31T07:53:32;12.23;;;4.15;;
4021;SDS011;2025;48.260;16.432;2022-10-31T07:55:59;14.20;;;4.88;;
4021;SDS011;2025;48.260;16.432;2022-10-31T07:58:26;15.32;;;7.57;;
4021;SDS011;2025;48.260;16.432;2022-10-31T08:00:53;16.13;;;5.38;;
4021;SDS011;2025;48.260;16.432;2022-10-31T08:03:20;15.57;;;5.38;;
4021;SDS011;2025;48.260;16.432;2022-10-31T08:05:49;13.85;;;5.25;;
4021;SDS011;2025;48.260;16.432;2022-10-31T08:08:16;17.58;;;5.40;;
4021;SDS011;2025;48.260;16.432;2022-10-31T08:10:43;15.43;;;5.20;;
4021;SDS011;2025;48.260;16.432;2022-10-31T08:13:10;16.27;;;5.53;;
4021;SDS011;2025;48.260;16.432;2022-10-31T08:15:39;16.10;;;5.70;;
4021;SDS011;2025;48.260;16.432;2022-10-31T08:18:09;19.65;;;6.55;;
4021;SDS011;2025;48.260;16.432;2022-10-31T08:20:38;19.40;;;6.55;;
4021;SDS011;2025;48.260;16.432;2022-10-31T08:23:06;19.45;;;7.13;;
4021;SDS011;2025;48.260;16.432;2022-10-31T08:25:34;19.33;;;6.68;;
4021;SDS011;2025;48.260;16.432;2022-10-31T08:28:01;16.27;;;5.72;;
4021;SDS011;2025;48.260;16.432;2022-10-31T08:30:30;19.75;;;6.78;;
4021;SDS011;2025;48.260;16.432;2022-10-31T08:32:59;16.58;;;6.65;;
4021;SDS011;2025;48.260;16.432;2022-10-31T08:35:27;14.48;;;6.03;;
4021;SDS011;2025;48.260;16.432;2022-10-31T08:37:54;16.08;;;6.07;;
4021;SDS011;2025;48.260;16.432;2022-10-31T08:40:23;16.20;;;5.85;;
4021;SDS011;2025;48.260;16.432;2022-10-31T08:42:55;16.73;;;6.22;;
4021;SDS011;2025;48.260;16.432;2022-10-31T08:45:23;16.50;;;6.57;;
4021;SDS011;2025;48.260;16.432;2022-10-31T08:47:51;18.35;;;6.78;;
4021;SDS011;2025;48.260;16.432;2022-10-31T08:50:18;17.55;;;6.25;;
4021;SDS011;2025;48.260;16.432;2022-10-31T08:52:45;19.05;;;5.90;;
4021;SDS011;2025;48.260;16.432;2022-10-31T08:55:12;19.65;;;6.57;;
4021;SDS011;2025;48.260;16.432;2022-10-31T08:57:41;18.13;;;7.38;;
4021;SDS011;2025;48.260;16.432;2022-10-31T09:00:08;20.58;;;7.03;;
4021;SDS011;2025;48.260;16.432;2022-10-31T09:02:36;22.50;;;8.20;;
4021;SDS011;2025;48.260;16.432;2022-10-31T09:05:04;21.60;;;7.97;;
4021;SDS011;2025;48.260;16.432;2022-10-31T09:07:31;20.67;;;7.88;;
4021;SDS011;2025;48.260;16.432;2022-10-31T09:09:58;22.02;;;8.05;;
4021;SDS011;2025;48.260;16.432;2022-10-31T09:12:25;21.27;;;7.32;;
4021;SDS011;2025;48.260;16.432;2022-10-31T09:14:53;20.88;;;9.25;;
4021;SDS011;2025;48.260;16.432;2022-10-31T09:17:20;23.50;;;8.05;;
4021;SDS011;2025;48.260;16.432;2022-10-31T09:19:47;21.20;;;9.25;;
4021;SDS011;2025;48.260;16.432;2022-10-31T09:22:14;20.58;;;7.35;;
4021;SDS011;2025;48.260;16.432;2022-10-31T09:24:41;20.35;;;8.27;;
4021;SDS011;2025;48.260;16.432;2022-10-31T09:27:08;22.98;;;9.13;;
4021;SDS011;2025;48.260;16.432;2022-10-31T09:29:35;19.30;;;8.30;;
4021;SDS011;2025;48.260;16.432;2022-10-31T09:32:04;21.05;;;8.45;;
4021;SDS011;2025;48.260;16.432;2022-10-31T09:34:31;23.10;;;8.50;;
4021;SDS011;2025;48.260;16.432;2022-10-31T09:36:58;24.10;;;9.10;;
4021;SDS011;2025;48.260;16.432;2022-10-31T09:39:25;21.35;;;7.70;;
4021;SDS011;2025;48.260;16.432;2022-10-31T09:41:58;25.65;;;8.93;;
4021;SDS011;2025;48.260;16.432;2022-10-31T09:44:36;22.02;;;8.57;;
4021;SDS011;2025;48.260;16.432;2022-10-31T09:47:16;30.65;;;9.18;;
4021;SDS011;2025;48.260;16.432;2022-10-31T09:49:53;21.92;;;8.05;;
4021;SDS011;2025;48.260;16.432;2022-10-31T09:52:33;22.42;;;8.65;;
4021;SDS011;2025;48.260;16.432;2022-10-31T09:55:04;21.65;;;8.35;;
4021;SDS011;2025;48.260;16.432;2022-10-31T09:57:36;23.42;;;9.77;;
4021;SDS011;2025;48.260;16.432;2022-10-31T10:00:04;22.88;;;9.00;;
4021;SDS011;2025;48.260;16.432;2022-10-31T10:02:34;24.20;;;9.93;;
4021;SDS011;2025;48.260;16.432;2022-10-31T10:05:08;26.15;;;10.32;;
4021;SDS011;2025;48.260;16.432;2022-10-31T10:07:40;30.02;;;9.68;;
4021;SDS011;2025;48.260;16.432;2022-10-31T10:10:14;26.30;;;8.55;;
4021;SDS011;2025;48.260;16.432;2022-10-31T10:12:47;26.83;;;9.02;;
4021;SDS011;2025;48.260;16.432;2022-10-31T10:15:39;27.38;;;10.45;;
4021;SDS011;2025;48.260;16.432;2022-10-31T10:18:22;28.52;;;9.55;;
4021;SDS011;2025;48.260;16.432;2022-10-31T10:21:11;19.98;;;7.72;;
4021;SDS011;2025;48.260;16.432;2022-10-31T10:23:55;26.38;;;10.02;;
4021;SDS011;2025;48.260;16.432;2022-10-31T10:26:31;25.55;;;9.90;;
4021;SDS011;2025;48.260;16.432;2022-10-31T10:29:03;27.50;;;10.63;;
4021;SDS011;2025;48.260;16.432;2022-10-31T10:31:44;27.88;;;10.73;;
4021;SDS011;2025;48.260;16.432;2022-10-31T10:34:16;26.90;;;10.70;;
4021;SDS011;2025;48.260;16.432;2022-10-31T10:36:48;29.65;;;10.75;;
4021;SDS011;2025;48.260;16.432;2022-10-31T10:39:20;30.63;;;10.52;;
4021;SDS011;2025;48.260;16.432;2022-10-31T10:41:50;31.83;;;12.13;;
4021;SDS011;2025;48.260;16.432;2022-10-31T10:44:42;33.83;;;12.00;;
4021;SDS011;2025;48.260;16.432;2022-10-31T10:47:31;32.65;;;13.00;;
4021;SDS011;2025;48.260;16.432;2022-10-31T10:50:09;28.88;;;13.10;;
4021;SDS011;2025;48.260;16.432;2022-10-31T10:52:42;32.22;;;11.73;;
4021;SDS011;2025;48.260;16.432;2022-10-31T10:55:22;36.05;;;14.27;;
4021;SDS011;2025;48.260;16.432;2022-10-31T10:57:58;33.90;;;12.25;;
4021;SDS011;2025;48.260;16.432;2022-10-31T11:00:29;32.05;;;11.82;;
4021;SDS011;2025;48.260;16.432;2022-10-31T11:02:58;35.65;;;12.85;;
4021;SDS011;2025;48.260;16.432;2022-10-31T11:05:28;32.03;;;12.25;;
4021;SDS011;2025;48.260;16.432;2022-10-31T11:08:00;28.48;;;11.35;;
4021;SDS011;2025;48.260;16.432;2022-10-31T11:10:27;34.25;;;11.55;;
4021;SDS011;2025;48.260;16.432;2022-10-31T11:13:01;32.42;;;12.52;;
4021;SDS011;2025;48.260;16.432;2022-10-31T11:15:35;33.65;;;12.82;;
4021;SDS011;2025;48.260;16.432;2022-10-31T11:18:04;31.50;;;11.98;;
4021;SDS011;2025;48.260;16.432;2022-10-31T11:20:34;34.30;;;12.93;;
4021;SDS011;2025;48.260;16.432;2022-10-31T11:23:03;34.08;;;12.35;;
4021;SDS011;2025;48.260;16.432;2022-10-31T11:25:47;31.48;;;12.18;;
4021;SDS011;2025;48.260;16.432;2022-10-31T11:28:16;33.90;;;11.98;;
4021;SDS011;2025;48.260;16.432;2022-10-31T11:30:44;27.83;;;11.57;;
4021;SDS011;2025;48.260;16.432;2022-10-31T11:33:17;35.00;;;12.60;;
4021;SDS011;2025;48.260;16.432;2022-10-31T11:35:49;31.48;;;11.40;;
4021;SDS011;2025;48.260;16.432;2022-10-31T11:38:17;37.17;;;12.82;;
4021;SDS011;2025;48.260;16.432;2022-10-31T11:40:53;32.45;;;11.77;;
4021;SDS011;2025;48.260;16.432;2022-10-31T11:43:22;32.75;;;13.05;;
4021;SDS011;2025;48.260;16.432;2022-10-31T11:45:50;29.48;;;10.82;;
4021;SDS011;2025;48.260;16.432;2022-10-31T11:48:18;30.38;;;11.80;;
4021;SDS011;2025;48.260;16.432;2022-10-31T11:50:51;32.25;;;11.63;;
4021;SDS011;2025;48.260;16.432;2022-10-31T11:53:22;30.95;;;11.10;;
4021;SDS011;2025;48.260;16.432;2022-10-31T11:56:00;31.92;;;12.00;;
4021;SDS011;2025;48.260;16.432;2022-10-31T11:58:31;37.22;;;12.65;;
4021;SDS011;2025;48.260;16.432;2022-10-31T12:00:58;33.67;;;12.38;;
4021;SDS011;2025;48.260;16.432;2022-10-31T12:03:43;32.28;;;11.55;;
4021;SDS011;2025;48.260;16.432;2022-10-31T12:06:21;30.27;;;12.20;;
4021;SDS011;2025;48.260;16.432;2022-10-31T12:08:51;35.35;;;12.57;;
4021;SDS011;2025;48.260;16.432;2022-10-31T12:11:23;37.67;;;13.65;;
4021;SDS011;2025;48.260;16.432;2022-10-31T12:14:04;27.85;;;11.80;;
4021;SDS011;2025;48.260;16.432;2022-10-31T12:16:44;31.58;;;12.15;;
4021;SDS011;2025;48.260;16.432;2022-10-31T12:19:17;30.65;;;12.15;;
4021;SDS011;2025;48.260;16.432;2022-10-31T12:22:07;31.17;;;11.35;;
4021;SDS011;2025;48.260;16.432;2022-10-31T12:24:44;32.13;;;12.20;;
4021;SDS011;2025;48.260;16.432;2022-10-31T12:30:07;29.15;;;11.00;;
4021;SDS011;2025;48.260;16.432;2022-10-31T12:35:51;31.33;;;10.93;;
4021;SDS011;2025;48.260;16.432;2022-10-31T12:38:39;30.52;;;11.48;;
4021;SDS011;2025;48.260;16.432;2022-10-31T12:41:20;34.28;;;11.73;;
4021;SDS011;2025;48.260;16.432;2022-10-31T12:44:01;40.80;;;14.73;;
4021;SDS011;2025;48.260;16.432;2022-10-31T12:46:38;35.03;;;12.77;;
4021;SDS011;2025;48.260;16.432;2022-10-31T12:49:25;33.60;;;12.35;;
4021;SDS011;2025;48.260;16.432;2022-10-31T12:52:07;36.00;;;12.77;;
4021;SDS011;2025;48.260;16.432;2022-10-31T12:55:00;34.17;;;12.32;;
4021;SDS011;2025;48.260;16.432;2022-10-31T12:57:35;35.97;;;12.43;;
4021;SDS011;2025;48.260;16.432;2022-10-31T13:00:11;34.42;;;12.35;;
4021;SDS011;2025;48.260;16.432;2022-10-31T13:02:42;34.40;;;12.48;;
4021;SDS011;2025;48.260;16.432;2022-10-31T13:05:17;34.55;;;12.48;;
4021;SDS011;2025;48.260;16.432;2022-10-31T13:07:49;42.35;;;14.27;;
4021;SDS011;2025;48.260;16.432;2022-10-31T13:10:24;36.55;;;13.90;;
4021;SDS011;2025;48.260;16.432;2022-10-31T13:12:57;40.47;;;14.05;;
4021;SDS011;2025;48.260;16.432;2022-10-31T13:15:28;42.85;;;14.95;;
4021;SDS011;2025;48.260;16.432;2022-10-31T13:18:00;45.08;;;15.90;;
4021;SDS011;2025;48.260;16.432;2022-10-31T13:20:33;42.72;;;15.07;;
4021;SDS011;2025;48.260;16.432;2022-10-31T13:23:07;45.58;;;16.13;;
4021;SDS011;2025;48.260;16.432;2022-10-31T13:25:45;42.38;;;15.93;;
4021;SDS011;2025;48.260;16.432;2022-10-31T13:28:21;44.35;;;16.10;;
4021;SDS011;2025;48.260;16.432;2022-10-31T13:30:52;45.13;;;16.33;;
4021;SDS011;2025;48.260;16.432;2022-10-31T13:33:20;50.45;;;16.15;;
4021;SDS011;2025;48.260;16.432;2022-10-31T13:35:54;45.38;;;16.23;;
4021;SDS011;2025;48.260;16.432;2022-10-31T13:38:27;45.42;;;15.07;;
4021;SDS011;2025;48.260;16.432;2022-10-31T13:41:02;45.88;;;15.82;;
4021;SDS011;2025;48.260;16.432;2022-10-31T13:43:36;50.15;;;16.30;;
4021;SDS011;2025;48.260;16.432;2022-10-31T13:46:24;47.92;;;15.63;;
4021;SDS011;2025;48.260;16.432;2022-10-31T13:48:52;47.45;;;16.85;;
4021;SDS011;2025;48.260;16.432;2022-10-31T13:51:24;47.58;;;16.63;;
4021;SDS011;2025;48.260;16.432;2022-10-31T13:53:57;48.42;;;16.70;;
4021;SDS011;2025;48.260;16.432;2022-10-31T13:56:26;49.00;;;16.38;;
4021;SDS011;2025;48.260;16.432;2022-10-31T13:59:00;52.38;;;15.77;;
4021;SDS011;2025;48.260;16.432;2022-10-31T14:01:30;52.88;;;16.92;;
4021;SDS011;2025;48.260;16.432;2022-10-31T14:04:03;51.33;;;17.65;;
4021;SDS011;2025;48.260;16.432;2022-10-31T14:06:39;48.30;;;16.50;;
4021;SDS011;2025;48.260;16.432;2022-10-31T14:09:19;52.50;;;18.80;;
4021;SDS011;2025;48.260;16.432;2022-10-31T14:11:51;50.00;;;16.88;;
4021;SDS011;2025;48.260;16.432;2022-10-31T14:14:19;49.28;;;16.63;;
4021;SDS011;2025;48.260;16.432;2022-10-31T14:16:53;46.78;;;16.63;;
4021;SDS011;2025;48.260;16.432;2022-10-31T14:19:22;46.63;;;16.75;;
4021;SDS011;2025;48.260;16.432;2022-10-31T14:21:50;51.28;;;18.30;;
4021;SDS011;2025;48.260;16.432;2022-10-31T14:24:31;46.92;;;17.17;;
4021;SDS011;2025;48.260;16.432;2022-10-31T14:27:01;44.67;;;16.42;;
4021;SDS011;2025;48.260;16.432;2022-10-31T14:29:33;49.53;;;17.60;;
4021;SDS011;2025;48.260;16.432;2022-10-31T14:32:05;49.30;;;17.13;;
4021;SDS011;2025;48.260;16.432;2022-10-31T14:34:43;47.50;;;16.35;;
4021;SDS011;2025;48.260;16.432;2022-10-31T14:37:38;53.28;;;16.65;;
4021;SDS011;2025;48.260;16.432;2022-10-31T14:40:27;51.58;;;16.77;;
4021;SDS011;2025;48.260;16.432;2022-10-31T14:43:12;47.97;;;17.27;;
4021;SDS011;2025;48.260;16.432;2022-10-31T14:45:54;48.60;;;16.27;;
4021;SDS011;2025;48.260;16.432;2022-10-31T14:48:32;53.85;;;16.65;;
4021;SDS011;2025;48.260;16.432;2022-10-31T14:51:17;47.58;;;16.95;;
4021;SDS011;2025;48.260;16.432;2022-10-31T14:53:47;43.42;;;15.75;;
4021;SDS011;2025;48.260;16.432;2022-10-31T14:56:19;49.33;;;15.80;;
4021;SDS011;2025;48.260;16.432;2022-10-31T14:58:51;46.45;;;17.23;;
4021;SDS011;2025;48.260;16.432;2022-10-31T15:01:23;46.75;;;16.52;;
4021;SDS011;2025;48.260;16.432;2022-10-31T15:03:53;47.67;;;16.00;;
4021;SDS011;2025;48.260;16.432;2022-10-31T15:06:24;46.85;;;16.27;;
4021;SDS011;2025;48.260;16.432;2022-10-31T15:08:53;56.10;;;16.25;;
4021;SDS011;2025;48.260;16.432;2022-10-31T15:11:21;53.80;;;18.88;;